Time;durP1;ratioP1;P1;durP2;ratioP2;P2;SDS_P1;SDS_P2;PMS_P1;PMS_P2;Temp;Humidity;BMP_temperature;BMP_pressure;BME280_temperature;BME280_humidity;BME280_pressure;Samples;Min_cycle;Max_cycle;Signal;HPM_P1;HPM_P2
2021/10/06 00:01:12;;;;;;;10.63;1.40;;;;;;;;;;5056016;28;20024;-77
2021/10/06 00:03:38;;;;;;;4.22;1.02;;;;;;;;;;5055440;28;20354;-77
2021/10/06 00:06:03;;;;;;;8.15;1.02;;;;;;;;;;5055686;28;20389;-78
2021/10/06 00:08:29;;;;;;;4.28;1.10;;;;;;;;;;5055290;28;20056;-77
2021/10/06 00:10:54;;;;;;;5.60;0.90;;;;;;;;;;5055599;28;20029;-77
2021/10/06 00:13:19;;;;;;;6.18;1.00;;;;;;;;;;5055622;28;20045;-77
2021/10/06 00:15:45;;;;;;;10.55;1.48;;;;;;;;;;5055524;28;20369;-77
2021/10/06 00:18:11;;;;;;;7.47;0.82;;;;;;;;;;5055141;28;20458;-77
2021/10/06 00:20:36;;;;;;;4.13;0.73;;;;;;;;;;5055699;28;20041;-77
2021/10/06 00:23:02;;;;;;;5.38;0.90;;;;;;;;;;5055056;28;20044;-77
2021/10/06 00:25:27;;;;;;;4.72;1.15;;;;;;;;;;5055700;28;20029;-78
2021/10/06 00:27:52;;;;;;;5.18;1.13;;;;;;;;;;5055335;28;20473;-78
2021/10/06 00:30:17;;;;;;;5.07;0.85;;;;;;;;;;5055294;28;20032;-77
2021/10/06 00:32:43;;;;;;;4.13;1.38;;;;;;;;;;5055237;28;20086;-77
2021/10/06 00:35:08;;;;;;;2.65;0.95;;;;;;;;;;5055055;28;20537;-77
2021/10/06 00:37:33;;;;;;;3.88;1.00;;;;;;;;;;5054044;28;20017;-77
2021/10/06 00:39:59;;;;;;;3.38;0.90;;;;;;;;;;5054982;28;20492;-77
2021/10/06 00:42:24;;;;;;;9.65;1.42;;;;;;;;;;5055299;28;20363;-77
2021/10/06 00:44:49;;;;;;;10.68;1.13;;;;;;;;;;5054911;28;20473;-77
2021/10/06 00:47:14;;;;;;;4.25;1.35;;;;;;;;;;5054988;28;20102;-77
2021/10/06 00:49:43;;;;;;;4.28;0.80;;;;;;;;;;5054848;28;20377;-78
2021/10/06 00:52:10;;;;;;;6.57;1.73;;;;;;;;;;5054890;28;20051;-77
2021/10/06 00:54:35;;;;;;;5.75;1.30;;;;;;;;;;5054942;28;20461;-77
2021/10/06 00:57:01;;;;;;;9.80;1.20;;;;;;;;;;5054744;28;20171;-77
2021/10/06 00:59:26;;;;;;;7.32;1.83;;;;;;;;;;5054339;28;20362;-77
2021/10/06 01:01:51;;;;;;;10.77;1.50;;;;;;;;;;5054477;28;20032;-77
2021/10/06 01:04:16;;;;;;;6.10;1.20;;;;;;;;;;5054844;28;20396;-77
2021/10/06 01:06:42;;;;;;;5.82;1.42;;;;;;;;;;5054687;28;20416;-77
2021/10/06 01:09:07;;;;;;;7.38;1.25;;;;;;;;;;5054542;28;20026;-77
2021/10/06 01:11:32;;;;;;;7.20;1.00;;;;;;;;;;5054483;28;20063;-77
2021/10/06 01:13:58;;;;;;;4.50;0.93;;;;;;;;;;5053436;28;20418;-77
2021/10/06 01:16:23;;;;;;;3.08;0.88;;;;;;;;;;5054661;28;20078;-77
2021/10/06 01:18:49;;;;;;;7.70;1.10;;;;;;;;;;5054017;28;20032;-77
2021/10/06 01:21:15;;;;;;;8.00;0.90;;;;;;;;;;5051183;28;20096;-77
2021/10/06 01:23:40;;;;;;;7.43;1.30;;;;;;;;;;5054027;28;20039;-77
2021/10/06 01:26:06;;;;;;;4.30;1.13;;;;;;;;;;5054226;28;20474;-77
2021/10/06 01:28:32;;;;;;;3.17;1.10;;;;;;;;;;5054286;28;20028;-77
2021/10/06 01:30:57;;;;;;;8.52;1.20;;;;;;;;;;5054078;28;20029;-77
2021/10/06 01:33:22;;;;;;;14.68;1.38;;;;;;;;;;5054199;28;20428;-77
2021/10/06 01:35:48;;;;;;;10.43;1.40;;;;;;;;;;5053477;28;20077;-77
2021/10/06 01:38:13;;;;;;;8.48;1.15;;;;;;;;;;5054215;28;20087;-78
2021/10/06 01:40:38;;;;;;;12.07;1.30;;;;;;;;;;5053824;28;20091;-77
2021/10/06 01:43:03;;;;;;;5.35;1.17;;;;;;;;;;5053875;28;20021;-78
2021/10/06 01:45:30;;;;;;;8.07;1.50;;;;;;;;;;5053670;28;20052;-77
2021/10/06 01:48:02;;;;;;;12.77;1.27;;;;;;;;;;5053757;28;20033;-78
2021/10/06 01:50:28;;;;;;;6.15;1.10;;;;;;;;;;5053823;28;20028;-77
2021/10/06 01:52:54;;;;;;;8.88;1.23;;;;;;;;;;5053717;28;20021;-77
2021/10/06 01:55:26;;;;;;;11.25;1.35;;;;;;;;;;5053686;28;20461;-77
2021/10/06 01:57:51;;;;;;;9.38;1.33;;;;;;;;;;5053638;28;20083;-78
2021/10/06 02:00:17;;;;;;;4.55;1.27;;;;;;;;;;5052020;28;20457;-77
2021/10/06 02:02:42;;;;;;;7.97;1.60;;;;;;;;;;5053173;28;20489;-77
2021/10/06 02:05:07;;;;;;;9.18;1.55;;;;;;;;;;5053622;28;20052;-78
2021/10/06 02:07:33;;;;;;;7.75;1.40;;;;;;;;;;5053576;28;20025;-77
2021/10/06 02:09:58;;;;;;;9.80;2.00;;;;;;;;;;5053412;28;20032;-78
2021/10/06 02:12:23;;;;;;;14.75;1.52;;;;;;;;;;5053460;28;20024;-77
2021/10/06 02:14:48;;;;;;;4.90;1.73;;;;;;;;;;5053157;28;20033;-77
2021/10/06 02:17:13;;;;;;;7.60;1.92;;;;;;;;;;5053321;28;20033;-77
2021/10/06 02:19:39;;;;;;;6.93;2.00;;;;;;;;;;5053216;28;20025;-78
2021/10/06 02:22:04;;;;;;;7.85;2.20;;;;;;;;;;5053280;28;20040;-78
2021/10/06 02:24:29;;;;;;;12.43;2.65;;;;;;;;;;5053469;28;20127;-77
2021/10/06 02:26:54;;;;;;;10.13;1.65;;;;;;;;;;5053204;28;20025;-77
2021/10/06 02:29:20;;;;;;;9.45;1.92;;;;;;;;;;5053255;28;20535;-77
2021/10/06 02:31:45;;;;;;;5.85;2.47;;;;;;;;;;5051893;28;20037;-77
2021/10/06 02:34:10;;;;;;;5.38;1.58;;;;;;;;;;5053219;28;20049;-77
2021/10/06 02:36:36;;;;;;;4.57;1.48;;;;;;;;;;5053112;28;20029;-77
2021/10/06 02:39:01;;;;;;;4.57;1.75;;;;;;;;;;5053041;28;20056;-77
2021/10/06 02:41:27;;;;;;;23.02;3.42;;;;;;;;;;5053444;28;20021;-77
2021/10/06 02:43:52;;;;;;;10.63;2.50;;;;;;;;;;5053011;28;20446;-77
2021/10/06 02:46:17;;;;;;;5.95;2.30;;;;;;;;;;5053153;28;20028;-77
2021/10/06 02:48:42;;;;;;;10.73;2.30;;;;;;;;;;5053123;28;20393;-77
2021/10/06 02:51:08;;;;;;;9.75;1.95;;;;;;;;;;5052969;28;20055;-77
2021/10/06 02:53:33;;;;;;;4.57;1.55;;;;;;;;;;5053106;28;20063;-77
2021/10/06 02:55:58;;;;;;;10.45;1.80;;;;;;;;;;5052761;28;20021;-77
2021/10/06 02:58:23;;;;;;;7.55;2.13;;;;;;;;;;5053283;28;20060;-77
2021/10/06 03:00:49;;;;;;;8.27;2.38;;;;;;;;;;5052959;28;20393;-77
2021/10/06 03:03:14;;;;;;;8.13;2.03;;;;;;;;;;5052893;28;20025;-77
2021/10/06 03:05:39;;;;;;;8.73;1.65;;;;;;;;;;5053012;28;20037;-77
2021/10/06 03:08:04;;;;;;;8.20;2.17;;;;;;;;;;5052620;28;20102;-77
2021/10/06 03:10:30;;;;;;;7.78;1.45;;;;;;;;;;5052887;28;20108;-77
2021/10/06 03:12:55;;;;;;;6.25;1.48;;;;;;;;;;5052913;28;20481;-77
2021/10/06 03:15:20;;;;;;;16.75;2.10;;;;;;;;;;5052786;28;20559;-77
2021/10/06 03:17:45;;;;;;;7.28;1.58;;;;;;;;;;5053200;28;20104;-77
2021/10/06 03:20:11;;;;;;;4.90;1.42;;;;;;;;;;5052575;28;20439;-77
2021/10/06 03:22:37;;;;;;;4.68;1.58;;;;;;;;;;5053030;28;20044;-77
2021/10/06 03:25:03;;;;;;;14.57;2.03;;;;;;;;;;5052016;28;20032;-78
2021/10/06 03:27:28;;;;;;;6.15;1.20;;;;;;;;;;5052422;28;20036;-77
2021/10/06 03:29:53;;;;;;;6.85;1.85;;;;;;;;;;5052695;28;20033;-77
2021/10/06 03:32:19;;;;;;;8.90;2.60;;;;;;;;;;5052670;28;20373;-77
2021/10/06 03:34:44;;;;;;;7.43;2.33;;;;;;;;;;5052468;28;20072;-77
2021/10/06 03:37:09;;;;;;;12.15;2.60;;;;;;;;;;5053304;28;20428;-77
2021/10/06 03:39:35;;;;;;;9.68;3.42;;;;;;;;;;5055085;28;20086;-77
2021/10/06 03:42:00;;;;;;;12.77;3.33;;;;;;;;;;5056183;28;20029;-77
2021/10/06 03:44:25;;;;;;;9.73;2.47;;;;;;;;;;5056251;28;20045;-77
2021/10/06 03:46:50;;;;;;;8.25;2.42;;;;;;;;;;5055739;28;20017;-77
2021/10/06 03:49:16;;;;;;;13.15;3.10;;;;;;;;;;5056063;28;20053;-77
2021/10/06 03:51:41;;;;;;;11.50;3.38;;;;;;;;;;5055636;28;20029;-77
2021/10/06 03:54:06;;;;;;;11.30;3.42;;;;;;;;;;5056021;28;20025;-77
2021/10/06 03:56:32;;;;;;;14.63;4.88;;;;;;;;;;5055885;28;20358;-77
2021/10/06 03:58:57;;;;;;;12.05;4.45;;;;;;;;;;5055824;28;20887;-78
2021/10/06 04:01:22;;;;;;;10.63;3.30;;;;;;;;;;5055925;28;20021;-77
2021/10/06 04:03:47;;;;;;;12.60;3.58;;;;;;;;;;5054601;28;20028;-78
2021/10/06 04:06:13;;;;;;;6.35;2.95;;;;;;;;;;5055428;28;20143;-77
2021/10/06 04:08:38;;;;;;;7.93;2.55;;;;;;;;;;5055830;28;20021;-77
2021/10/06 04:11:03;;;;;;;6.57;2.28;;;;;;;;;;5055413;28;20036;-78
2021/10/06 04:13:28;;;;;;;7.72;2.47;;;;;;;;;;5055567;28;20033;-77
2021/10/06 04:15:54;;;;;;;10.70;2.10;;;;;;;;;;5055577;28;20139;-77
2021/10/06 04:18:19;;;;;;;13.98;2.80;;;;;;;;;;5055512;28;20116;-77
2021/10/06 04:20:44;;;;;;;14.27;2.35;;;;;;;;;;5055441;28;20397;-78
2021/10/06 04:23:10;;;;;;;4.40;2.00;;;;;;;;;;5055106;28;20029;-77
2021/10/06 04:25:35;;;;;;;13.95;2.25;;;;;;;;;;5055431;28;20032;-77
2021/10/06 04:28:00;;;;;;;6.03;2.38;;;;;;;;;;5055271;28;20087;-77
2021/10/06 04:30:26;;;;;;;11.80;2.97;;;;;;;;;;5055375;28;20032;-77
2021/10/06 04:32:51;;;;;;;8.23;3.67;;;;;;;;;;5055190;28;20029;-77
2021/10/06 04:35:17;;;;;;;16.65;2.95;;;;;;;;;;5055206;28;20049;-77
2021/10/06 04:37:42;;;;;;;17.17;5.60;;;;;;;;;;5053820;28;20424;-77
2021/10/06 04:40:07;;;;;;;18.45;6.95;;;;;;;;;;5055404;28;20040;-77
2021/10/06 04:42:33;;;;;;;12.98;5.47;;;;;;;;;;5055005;28;20029;-77
2021/10/06 04:44:58;;;;;;;12.77;4.53;;;;;;;;;;5054985;28;20024;-78
2021/10/06 04:47:24;;;;;;;12.73;3.80;;;;;;;;;;5054732;28;20033;-77
2021/10/06 04:49:49;;;;;;;12.18;3.10;;;;;;;;;;5053787;28;20029;-77
2021/10/06 04:52:14;;;;;;;14.95;3.30;;;;;;;;;;5054565;28;20029;-78
2021/10/06 04:54:40;;;;;;;12.48;4.00;;;;;;;;;;5055107;28;20025;-77
2021/10/06 04:57:05;;;;;;;15.60;5.78;;;;;;;;;;5054518;28;20060;-77
2021/10/06 04:59:30;;;;;;;17.40;6.15;;;;;;;;;;5054638;28;20035;-77
2021/10/06 05:01:56;;;;;;;12.57;4.40;;;;;;;;;;5054655;28;20477;-77
2021/10/06 05:04:22;;;;;;;22.27;4.80;;;;;;;;;;5054886;28;20436;-77
2021/10/06 05:06:47;;;;;;;14.68;3.70;;;;;;;;;;5054599;28;20060;-77
2021/10/06 05:09:13;;;;;;;10.13;2.90;;;;;;;;;;5054498;28;20461;-77
2021/10/06 05:11:38;;;;;;;16.85;4.90;;;;;;;;;;5054469;28;20035;-77
2021/10/06 05:14:04;;;;;;;12.73;4.18;;;;;;;;;;5054387;28;20107;-77
2021/10/06 05:16:29;;;;;;;10.02;4.15;;;;;;;;;;5054714;28;20075;-77
2021/10/06 05:18:54;;;;;;;9.90;3.95;;;;;;;;;;5054426;28;20040;-77
2021/10/06 05:21:20;;;;;;;10.30;3.92;;;;;;;;;;5054269;28;20029;-77
2021/10/06 05:23:45;;;;;;;6.72;3.13;;;;;;;;;;5054425;28;20039;-77
2021/10/06 05:26:10;;;;;;;15.57;3.90;;;;;;;;;;5054201;28;20420;-78
2021/10/06 05:28:35;;;;;;;11.88;3.42;;;;;;;;;;5054306;28;20046;-78
2021/10/06 05:31:01;;;;;;;9.18;3.30;;;;;;;;;;5054068;28;20036;-78
2021/10/06 05:33:26;;;;;;;8.57;2.75;;;;;;;;;;5054107;28;20473;-78
2021/10/06 05:35:51;;;;;;;12.48;2.40;;;;;;;;;;5054063;28;20055;-77
2021/10/06 05:38:17;;;;;;;13.18;1.63;;;;;;;;;;5054020;28;20037;-77
2021/10/06 05:40:42;;;;;;;4.85;1.38;;;;;;;;;;5053861;28;20045;-77
2021/10/06 05:43:11;;;;;;;13.73;2.83;;;;;;;;;;5053965;28;20023;-77
2021/10/06 05:45:36;;;;;;;13.75;1.73;;;;;;;;;;5053938;28;20025;-77
2021/10/06 05:48:02;;;;;;;4.93;1.50;;;;;;;;;;5053549;28;20029;-77
2021/10/06 05:50:27;;;;;;;6.45;1.63;;;;;;;;;;5053740;28;20099;-77
2021/10/06 05:52:56;;;;;;;6.72;1.83;;;;;;;;;;5053728;28;20428;-77
2021/10/06 05:55:22;;;;;;;5.28;1.67;;;;;;;;;;5053434;28;20385;-77
2021/10/06 05:57:47;;;;;;;5.85;1.88;;;;;;;;;;5053672;28;20021;-77
2021/10/06 06:00:12;;;;;;;8.60;1.75;;;;;;;;;;5052918;28;20477;-77
2021/10/06 06:02:41;;;;;;;4.43;1.50;;;;;;;;;;5053579;28;20033;-76
2021/10/06 06:05:06;;;;;;;5.28;1.50;;;;;;;;;;5053396;28;20462;-77
2021/10/06 06:07:32;;;;;;;7.07;1.60;;;;;;;;;;5053552;28;20029;-77
2021/10/06 06:09:57;;;;;;;7.72;1.30;;;;;;;;;;5053496;28;20091;-77
2021/10/06 06:12:22;;;;;;;4.70;1.23;;;;;;;;;;5053452;28;20021;-78
2021/10/06 06:14:48;;;;;;;7.85;1.70;;;;;;;;;;5053451;28;20024;-77
2021/10/06 06:17:13;;;;;;;13.13;1.77;;;;;;;;;;5053425;28;20362;-77
2021/10/06 06:19:38;;;;;;;9.43;1.50;;;;;;;;;;5053511;28;20040;-77
2021/10/06 06:22:04;;;;;;;4.55;1.20;;;;;;;;;;5053234;28;20040;-77
2021/10/06 06:24:29;;;;;;;8.93;1.30;;;;;;;;;;5053336;28;20108;-77
2021/10/06 06:26:54;;;;;;;11.57;1.70;;;;;;;;;;5053301;28;20108;-77
2021/10/06 06:29:20;;;;;;;7.10;1.60;;;;;;;;;;5053324;28;20045;-77
2021/10/06 06:31:46;;;;;;;4.00;1.48;;;;;;;;;;5053265;28;20087;-77
2021/10/06 06:34:11;;;;;;;10.07;1.42;;;;;;;;;;5053105;28;20064;-77
2021/10/06 06:36:36;;;;;;;6.53;1.75;;;;;;;;;;5052783;28;20032;-77
2021/10/06 06:39:03;;;;;;;6.22;1.27;;;;;;;;;;5053070;28;20035;-77
2021/10/06 06:41:28;;;;;;;4.88;1.75;;;;;;;;;;5053211;28;20108;-77
2021/10/06 06:43:53;;;;;;;5.60;1.15;;;;;;;;;;5052971;28;20131;-77
2021/10/06 06:46:19;;;;;;;12.50;1.50;;;;;;;;;;5053279;28;20041;-77
2021/10/06 06:48:44;;;;;;;8.05;1.40;;;;;;;;;;5053150;28;20029;-77
2021/10/06 06:51:09;;;;;;;10.57;1.40;;;;;;;;;;5052381;28;20028;-77
2021/10/06 06:53:35;;;;;;;4.32;1.30;;;;;;;;;;5052804;28;20029;-76
2021/10/06 06:56:00;;;;;;;6.00;1.55;;;;;;;;;;5052992;28;20032;-77
2021/10/06 06:58:26;;;;;;;5.43;1.58;;;;;;;;;;5053011;28;20033;-77
2021/10/06 07:00:51;;;;;;;13.35;2.10;;;;;;;;;;5053034;28;20041;-77
2021/10/06 07:03:17;;;;;;;5.53;1.58;;;;;;;;;;5052973;28;20025;-77
2021/10/06 07:05:43;;;;;;;6.35;1.52;;;;;;;;;;5052938;28;20040;-77
2021/10/06 07:08:08;;;;;;;10.00;1.40;;;;;;;;;;5052778;28;20470;-78
2021/10/06 07:10:34;;;;;;;64.03;3.90;;;;;;;;;;5051758;28;20025;-78
2021/10/06 07:12:59;;;;;;;18.60;1.75;;;;;;;;;;5054995;28;20025;-78
2021/10/06 07:15:24;;;;;;;17.27;1.48;;;;;;;;;;5056668;28;20040;-78
2021/10/06 07:17:50;;;;;;;8.27;1.02;;;;;;;;;;5056684;28;20381;-78
2021/10/06 07:20:15;;;;;;;49.33;2.40;;;;;;;;;;5056180;28;20051;-79
2021/10/06 07:22:44;;;;;;;78.68;4.28;;;;;;;;;;5056413;28;20076;-78
2021/10/06 07:25:09;;;;;;;2.13;0.77;;;;;;;;;;5056565;28;20044;-79
2021/10/06 07:27:34;;;;;;;5.03;0.90;;;;;;;;;;5056453;28;20410;-79
2021/10/06 07:30:00;;;;;;;4.43;1.10;;;;;;;;;;5056445;28;20029;-78
2021/10/06 07:32:25;;;;;;;3.70;0.73;;;;;;;;;;5056617;28;20445;-76
2021/10/06 07:34:50;;;;;;;3.28;0.85;;;;;;;;;;5056057;28;20037;-79
2021/10/06 07:37:16;;;;;;;3.28;0.80;;;;;;;;;;5056440;28;20033;-77
2021/10/06 07:39:41;;;;;;;3.40;1.13;;;;;;;;;;5054656;28;20524;-77
2021/10/06 07:42:07;;;;;;;2.58;0.90;;;;;;;;;;5056423;28;20029;-76
2021/10/06 07:44:32;;;;;;;6.55;1.08;;;;;;;;;;5056231;28;20539;-77
2021/10/06 07:46:57;;;;;;;5.53;1.00;;;;;;;;;;5056328;28;20105;-77
2021/10/06 07:49:23;;;;;;;3.97;0.90;;;;;;;;;;5055917;28;20052;-77
2021/10/06 07:51:48;;;;;;;3.90;1.05;;;;;;;;;;5055804;28;20041;-77
2021/10/06 07:54:13;;;;;;;1.95;1.13;;;;;;;;;;5055724;28;20119;-77
2021/10/06 07:56:39;;;;;;;4.18;1.35;;;;;;;;;;5055946;28;20033;-77
2021/10/06 07:59:04;;;;;;;5.28;1.15;;;;;;;;;;5056124;28;20064;-78
2021/10/06 08:01:30;;;;;;;3.33;0.90;;;;;;;;;;5055617;28;20544;-77
2021/10/06 08:03:55;;;;;;;5.43;1.20;;;;;;;;;;5055993;28;20074;-77
2021/10/06 08:06:20;;;;;;;4.40;1.10;;;;;;;;;;5056022;28;20469;-78
2021/10/06 08:08:46;;;;;;;2.03;0.93;;;;;;;;;;5055830;28;20022;-78
2021/10/06 08:11:11;;;;;;;1.98;1.00;;;;;;;;;;5055620;28;20031;-78
2021/10/06 08:13:36;;;;;;;4.72;0.90;;;;;;;;;;5055648;28;20397;-79
2021/10/06 08:16:02;;;;;;;3.97;1.10;;;;;;;;;;5055628;28;20021;-78
2021/10/06 08:18:27;;;;;;;3.30;0.90;;;;;;;;;;5050353;28;20029;-79
2021/10/06 08:20:53;;;;;;;5.07;1.40;;;;;;;;;;5052026;28;20095;-79
2021/10/06 08:23:18;;;;;;;0.80;0.60;;;;;;;;;;5051657;28;20781;-79
2021/10/06 08:25:47;;;;;;;2.83;0.75;;;;;;;;;;5050832;28;20116;-79
2021/10/06 08:28:12;;;;;;;4.75;1.02;;;;;;;;;;5051340;28;20708;-79
2021/10/06 08:30:38;;;;;;;5.05;0.90;;;;;;;;;;5051741;28;20028;-79
2021/10/06 08:33:03;;;;;;;3.33;1.05;;;;;;;;;;5051975;28;20025;-79
2021/10/06 08:35:29;;;;;;;4.90;1.00;;;;;;;;;;5051486;28;20448;-79
2021/10/06 08:37:54;;;;;;;5.78;1.25;;;;;;;;;;5051115;28;20108;-79
2021/10/06 08:40:19;;;;;;;4.25;0.80;;;;;;;;;;5051194;28;20036;-78
2021/10/06 08:42:44;;;;;;;3.72;0.98;;;;;;;;;;5047407;28;20028;-79
2021/10/06 08:45:10;;;;;;;3.58;0.80;;;;;;;;;;5051133;28;20032;-79
2021/10/06 08:47:36;;;;;;;1.48;0.68;;;;;;;;;;5050310;28;20025;-79
2021/10/06 08:50:02;;;;;;;4.32;0.73;;;;;;;;;;5050333;28;20520;-80
2021/10/06 08:52:27;;;;;;;3.40;0.65;;;;;;;;;;5050795;28;20052;-79
2021/10/06 08:54:53;;;;;;;3.05;0.93;;;;;;;;;;5050307;28;20505;-79
2021/10/06 08:57:20;;;;;;;4.95;0.80;;;;;;;;;;5050520;28;20466;-81
2021/10/06 08:59:45;;;;;;;3.42;0.90;;;;;;;;;;5051766;28;20032;-79
2021/10/06 09:02:14;;;;;;;5.13;0.73;;;;;;;;;;5050950;28;20386;-80
2021/10/06 09:04:41;;;;;;;2.40;0.60;;;;;;;;;;5050806;28;20082;-79
2021/10/06 09:07:07;;;;;;;5.15;0.98;;;;;;;;;;5050436;28;20017;-79
2021/10/06 09:09:33;;;;;;;2.83;0.50;;;;;;;;;;5050551;28;20040;-79
2021/10/06 09:11:59;;;;;;;4.75;0.70;;;;;;;;;;5050739;28;20037;-79
2021/10/06 09:14:25;;;;;;;2.17;0.63;;;;;;;;;;5051052;28;20828;-80
2021/10/06 09:17:04;;;;;;;2.28;1.00;;;;;;;;;;5050754;28;20108;-79
2021/10/06 09:19:56;;;;;;;4.03;0.90;;;;;;;;;;5050269;28;20474;-82
2021/10/06 09:22:31;;;;;;;3.85;1.00;;;;;;;;;;5050684;28;20032;-80
2021/10/06 09:24:56;;;;;;;;;;;;;;;;;;5051330;28;20082;-80
2021/10/06 09:27:29;;;;;;;1.47;0.50;;;;;;;;;;5049153;28;19909;-79
2021/10/06 09:30:04;;;;;;;3.92;0.75;;;;;;;;;;5049659;28;20876;-80
2021/10/06 09:32:29;;;;;;;;;;;;;;;;;;5051614;28;20100;-80
2021/10/06 09:34:58;;;;;;;1.88;1.42;;;;;;;;;;5049460;28;19979;-80
2021/10/06 09:37:24;;;;;;;2.83;0.63;;;;;;;;;;5050494;28;20035;-79
2021/10/06 09:39:53;;;;;;;3.65;0.70;;;;;;;;;;5050602;28;20385;-79
2021/10/06 09:42:18;;;;;;;5.40;0.88;;;;;;;;;;5050529;28;20457;-80
2021/10/06 09:44:57;;;;;;;4.75;0.82;;;;;;;;;;5050598;28;20032;-79
2021/10/06 09:47:23;;;;;;;1.77;0.68;;;;;;;;;;5050100;28;20031;-79
2021/10/06 09:49:56;;;;;;;4.30;0.80;;;;;;;;;;5050005;28;20478;-79
2021/10/06 09:52:28;;;;;;;2.25;0.65;;;;;;;;;;5050225;28;20021;-80
2021/10/06 09:54:57;;;;;;;2.03;0.80;;;;;;;;;;5050667;28;20033;-79
2021/10/06 09:57:28;;;;;;;6.13;1.00;;;;;;;;;;5049732;28;20060;-80
2021/10/06 09:59:53;;;;;;;4.75;0.98;;;;;;;;;;5050018;28;20120;-79
2021/10/06 10:02:19;;;;;;;2.72;0.52;;;;;;;;;;5050419;28;20569;-81
2021/10/06 10:04:45;;;;;;;2.05;0.57;;;;;;;;;;5050007;28;20036;-80
2021/10/06 10:07:10;;;;;;;9.13;1.05;;;;;;;;;;5045852;28;20024;-81
2021/10/06 10:09:36;;;;;;;5.05;0.50;;;;;;;;;;5049299;28;20076;-78
2021/10/06 10:12:02;;;;;;;3.17;0.77;;;;;;;;;;5050341;28;20083;-79
2021/10/06 10:14:27;;;;;;;5.22;0.85;;;;;;;;;;5049668;28;20048;-82
2021/10/06 10:16:52;;;;;;;4.28;0.80;;;;;;;;;;5050309;28;20021;-78
2021/10/06 10:19:18;;;;;;;2.97;0.50;;;;;;;;;;5049510;28;20044;-79
2021/10/06 10:21:44;;;;;;;2.90;0.60;;;;;;;;;;5049861;28;20063;-79
2021/10/06 10:24:15;;;;;;;5.05;0.80;;;;;;;;;;5049571;28;20029;-78
2021/10/06 10:27:00;;;;;;;6.05;0.80;;;;;;;;;;5049553;28;20068;-79
2021/10/06 10:29:25;;;;;;;;;;;;;;;;;;5049058;28;20110;-78
2021/10/06 10:32:00;;;;;;;4.22;0.70;;;;;;;;;;5049534;28;19912;-78
2021/10/06 10:34:44;;;;;;;5.35;0.77;;;;;;;;;;5049528;28;20056;-78
2021/10/06 10:37:10;;;;;;;3.03;0.70;;;;;;;;;;5050078;28;20029;-78
2021/10/06 10:39:35;;;;;;;5.25;0.60;;;;;;;;;;5049181;28;20120;-78
2021/10/06 10:42:00;;;;;;;3.25;0.50;;;;;;;;;;5049618;28;20474;-79
2021/10/06 10:44:30;;;;;;;2.83;0.65;;;;;;;;;;5049798;28;20032;-78
2021/10/06 10:46:56;;;;;;;1.85;0.40;;;;;;;;;;5050257;28;20029;-78
2021/10/06 10:49:21;;;;;;;2.03;0.80;;;;;;;;;;5053052;28;20040;-78
2021/10/06 10:51:48;;;;;;;5.35;0.50;;;;;;;;;;5053672;28;20013;-79
2021/10/06 10:54:33;;;;;;;5.82;0.70;;;;;;;;;;5053715;28;20025;-78
2021/10/06 10:57:06;;;;;;;4.85;0.60;;;;;;;;;;5052520;28;20398;-78
2021/10/06 10:59:42;;;;;;;3.97;0.50;;;;;;;;;;5052718;28;20056;-79
2021/10/06 11:02:28;;;;;;;1.20;0.57;;;;;;;;;;5053040;28;20017;-78
2021/10/06 11:04:54;;;;;;;3.67;0.57;;;;;;;;;;5052703;28;20037;-78
2021/10/06 11:07:21;;;;;;;1.48;0.60;;;;;;;;;;5054106;28;20057;-79
2021/10/06 11:09:47;;;;;;;1.63;0.40;;;;;;;;;;5053165;28;20071;-78
2021/10/06 11:12:14;;;;;;;2.08;0.52;;;;;;;;;;5049680;28;20032;-78
2021/10/06 11:14:40;;;;;;;0.38;0.38;;;;;;;;;;5052016;28;20032;-77
2021/10/06 11:17:16;;;;;;;1.58;0.60;;;;;;;;;;5052219;28;20041;-79
2021/10/06 11:19:45;;;;;;;4.43;1.45;;;;;;;;;;5051618;28;20044;-78
2021/10/06 11:22:31;;;;;;;3.42;1.50;;;;;;;;;;5052902;28;20033;-80
2021/10/06 11:25:00;;;;;;;9.18;2.60;;;;;;;;;;5048698;28;20040;-78
2021/10/06 11:27:26;;;;;;;5.88;0.90;;;;;;;;;;5050803;28;20108;-79
2021/10/06 11:29:52;;;;;;;2.10;0.88;;;;;;;;;;5051464;28;20478;-78
2021/10/06 11:32:18;;;;;;;3.10;0.73;;;;;;;;;;5051179;28;20033;-78
2021/10/06 11:34:44;;;;;;;2.72;0.80;;;;;;;;;;5052367;28;20567;-78
2021/10/06 11:37:14;;;;;;;1.48;0.50;;;;;;;;;;5052014;28;20017;-78
2021/10/06 11:39:39;;;;;;;1.98;0.60;;;;;;;;;;5052324;28;20035;-78
2021/10/06 11:42:04;;;;;;;2.70;0.68;;;;;;;;;;5051999;28;20029;-79
2021/10/06 11:44:31;;;;;;;6.05;0.93;;;;;;;;;;5050635;28;20453;-77
2021/10/06 11:47:00;;;;;;;2.67;1.20;;;;;;;;;;5052525;28;20044;-79
2021/10/06 11:49:29;;;;;;;3.10;0.70;;;;;;;;;;5052009;28;20045;-79
2021/10/06 11:51:54;;;;;;;4.25;0.60;;;;;;;;;;5051782;28;20028;-78
2021/10/06 11:54:21;;;;;;;3.17;0.60;;;;;;;;;;5051738;28;20028;-78
2021/10/06 11:56:47;;;;;;;0.95;0.50;;;;;;;;;;5052398;28;20037;-78
2021/10/06 11:59:13;;;;;;;3.35;0.52;;;;;;;;;;5051232;28;20100;-79
2021/10/06 12:01:40;;;;;;;3.78;0.60;;;;;;;;;;5051243;28;20032;-79
2021/10/06 12:04:12;;;;;;;3.05;0.75;;;;;;;;;;5052171;28;20025;-78
2021/10/06 12:06:38;;;;;;;3.42;0.50;;;;;;;;;;5052030;28;20051;-78
2021/10/06 12:09:08;;;;;;;1.65;0.40;;;;;;;;;;5049952;28;20037;-79
2021/10/06 12:11:34;;;;;;;3.00;0.55;;;;;;;;;;5051853;28;20033;-78
2021/10/06 12:14:14;;;;;;;2.50;0.55;;;;;;;;;;5051249;28;20031;-79
2021/10/06 12:16:40;;;;;;;1.40;0.40;;;;;;;;;;5051651;28;20029;-78
2021/10/06 12:19:05;;;;;;;2.95;0.50;;;;;;;;;;5051851;28;20116;-78
2021/10/06 12:21:31;;;;;;;3.30;0.43;;;;;;;;;;5051349;28;20043;-81
2021/10/06 12:24:00;;;;;;;1.45;0.47;;;;;;;;;;5051911;28;20025;-79
2021/10/06 12:26:29;;;;;;;2.15;0.35;;;;;;;;;;5051317;28;20143;-78
2021/10/06 12:28:56;;;;;;;2.15;0.30;;;;;;;;;;5050594;28;20220;-79
2021/10/06 12:31:22;;;;;;;2.13;0.40;;;;;;;;;;5050739;28;20370;-79
2021/10/06 12:33:47;;;;;;;1.80;0.75;;;;;;;;;;5051449;28;20524;-79
2021/10/06 12:36:13;;;;;;;1.67;0.40;;;;;;;;;;5052022;28;20045;-78
2021/10/06 12:38:39;;;;;;;3.42;0.63;;;;;;;;;;5052154;28;20070;-78
2021/10/06 12:41:12;;;;;;;3.70;0.65;;;;;;;;;;5051653;28;20460;-79
2021/10/06 12:43:44;;;;;;;5.63;0.52;;;;;;;;;;5051733;28;20056;-77
2021/10/06 12:46:15;;;;;;;1.95;0.20;;;;;;;;;;5051801;28;20021;-78
2021/10/06 12:48:41;;;;;;;2.58;0.40;;;;;;;;;;5051579;28;20037;-78
2021/10/06 12:51:08;;;;;;;3.63;0.50;;;;;;;;;;5050618;28;20025;-78
2021/10/06 12:53:33;;;;;;;1.35;0.40;;;;;;;;;;5050568;28;20481;-78
2021/10/06 12:55:59;;;;;;;1.20;0.30;;;;;;;;;;5050366;28;20040;-78
2021/10/06 12:58:24;;;;;;;3.22;0.70;;;;;;;;;;5051107;28;20017;-78
2021/10/06 13:00:50;;;;;;;2.15;0.50;;;;;;;;;;5050238;28;20170;-78
2021/10/06 13:03:15;;;;;;;2.65;0.60;;;;;;;;;;5050654;28;20036;-79
2021/10/06 13:05:41;;;;;;;1.55;0.50;;;;;;;;;;5050991;28;20025;-78
2021/10/06 13:08:14;;;;;;;1.40;0.40;;;;;;;;;;5050910;28;20412;-79
2021/10/06 13:10:39;;;;;;;1.45;0.30;;;;;;;;;;5049843;28;20025;-78
2021/10/06 13:13:04;;;;;;;3.22;0.30;;;;;;;;;;5050438;28;20017;-79
2021/10/06 13:15:29;;;;;;;3.08;0.43;;;;;;;;;;5050402;28;20604;-81
2021/10/06 13:17:55;;;;;;;1.52;0.32;;;;;;;;;;5051035;28;20037;-78
2021/10/06 13:20:20;;;;;;;2.60;0.40;;;;;;;;;;5049959;28;20226;-78
2021/10/06 13:22:45;;;;;;;3.30;0.40;;;;;;;;;;5050202;28;20024;-78
2021/10/06 13:25:10;;;;;;;3.53;0.47;;;;;;;;;;5050907;28;20039;-79
2021/10/06 13:27:36;;;;;;;1.05;0.30;;;;;;;;;;5050604;28;20413;-77
2021/10/06 13:30:02;;;;;;;1.77;0.45;;;;;;;;;;5050977;28;20382;-79
2021/10/06 13:32:27;;;;;;;2.33;0.60;;;;;;;;;;5049878;28;20067;-78
2021/10/06 13:34:52;;;;;;;1.00;0.40;;;;;;;;;;5049948;28;20095;-77
2021/10/06 13:37:18;;;;;;;1.40;0.30;;;;;;;;;;5050466;28;20024;-78
2021/10/06 13:39:43;;;;;;;2.15;0.50;;;;;;;;;;5045392;28;20041;-78
2021/10/06 13:42:11;;;;;;;1.38;0.50;;;;;;;;;;5049778;28;20036;-78
2021/10/06 13:44:36;;;;;;;3.28;0.50;;;;;;;;;;5049983;28;20025;-77
2021/10/06 13:47:02;;;;;;;3.78;0.60;;;;;;;;;;5049906;28;20099;-78
2021/10/06 13:49:27;;;;;;;2.50;0.55;;;;;;;;;;5049902;28;20060;-78
2021/10/06 13:51:52;;;;;;;4.18;0.75;;;;;;;;;;5048835;28;20033;-78
2021/10/06 13:54:17;;;;;;;3.03;0.75;;;;;;;;;;5048935;28;20108;-79
2021/10/06 13:56:43;;;;;;;4.85;0.68;;;;;;;;;;5049094;28;20025;-79
2021/10/06 13:59:08;;;;;;;1.45;0.50;;;;;;;;;;5049675;28;20393;-78
2021/10/06 14:01:33;;;;;;;7.40;0.77;;;;;;;;;;5049246;28;20040;-79
2021/10/06 14:03:59;;;;;;;3.83;0.70;;;;;;;;;;5049931;28;20029;-78
2021/10/06 14:06:24;;;;;;;2.15;0.47;;;;;;;;;;5049587;28;20090;-78
2021/10/06 14:08:50;;;;;;;5.25;0.98;;;;;;;;;;5049771;28;20041;-78
2021/10/06 14:11:15;;;;;;;4.55;0.60;;;;;;;;;;5048890;28;20061;-79
2021/10/06 14:13:41;;;;;;;2.65;0.75;;;;;;;;;;5049239;28;20048;-78
2021/10/06 14:16:06;;;;;;;4.43;0.95;;;;;;;;;;5049379;28;20040;-78
2021/10/06 14:18:31;;;;;;;7.53;0.75;;;;;;;;;;5049032;28;20017;-78
2021/10/06 14:20:57;;;;;;;2.58;0.80;;;;;;;;;;5049290;28;20102;-79
2021/10/06 14:23:22;;;;;;;2.95;0.73;;;;;;;;;;5049340;28;20036;-80
2021/10/06 14:25:49;;;;;;;6.45;1.10;;;;;;;;;;5049264;28;20021;-79
2021/10/06 14:28:15;;;;;;;3.85;1.15;;;;;;;;;;5049381;28;20367;-79
2021/10/06 14:30:40;;;;;;;6.25;0.88;;;;;;;;;;5049271;28;20047;-78
2021/10/06 14:33:05;;;;;;;3.83;0.90;;;;;;;;;;5048547;28;20025;-79
2021/10/06 14:35:31;;;;;;;5.97;1.00;;;;;;;;;;5049112;28;20065;-79